Aktuální počasí v Česku a ve světě - METAR

Seznam meteostanic umístěných nejčasteji na letišti v ČR a ve světě

Vyhledat místa podle abecedy:
A B C D E F G H I J K L M N O P Q R S T U V W X Y Z

Filtrovat:

ID stanice:
a/nebo
Název místa (fulltext):
 
Místo (ID)Naposledy načteno 
Temelín (Temelin) 18.06.2021 09:00 UTC Zobrazit data
Místo: Temelín
Teplota: 27 °C (pocitová: 28.7 °C)
Vítr: 3 m/s z(e) 110°
Počasí: skorojasno
Dohlednost: 40 km
Zákl. oblačnosti: 1/8 990 m
Vlhkost: 48%
Tahiti (NTAA) 18.06.2021 09:00 UTC Zobrazit METAR
NTAA 180900Z AUTO VRB02KT 9999 BKN050 OVC064 26/20 Q1015 NOSIG
Taipei (RCTP) 18.06.2021 09:00 UTC Zobrazit METAR
RCTP 180900Z 24017KT 9999 FEW015 SCT200 33/25 Q1002 WS R23R NOSIG RMK A2960
Taipei (RCSS) 18.06.2021 09:00 UTC Zobrazit METAR
RCSS 180900Z 25016KT 9999 FEW030 BKN250 37/26 Q1002 NOSIG RMK 26014KT/R10 A2959
Tallinn (EETN) 18.06.2021 08:50 UTC Zobrazit METAR
EETN 180850Z 22013KT 180V250 CAVOK 26/13 Q1019 NOSIG
Tampere (EFTP) 18.06.2021 08:50 UTC Zobrazit METAR
EFTP 180850Z 23012KT 190V250 CAVOK 23/10 Q1016
Tarawa I (NGTA) 18.06.2021 08:00 UTC Zobrazit METAR
NGTA 180800Z 08005KT 9999 FEW019 27/24 Q1009
Targu Mures (LRTM) 18.06.2021 09:00 UTC Zobrazit METAR
LRTM 180900Z 28005KT 230V340 9999 FEW033 26/18 Q1017
Tartu (EETU) 18.06.2021 08:50 UTC Zobrazit METAR
EETU 180850Z 24010KT 190V270 CAVOK 26/11 Q1022
Tashkent (UTTT) 18.06.2021 09:00 UTC Zobrazit METAR
UTTT 180900Z 22006KT 140V300 CAVOK 33/06 Q1008 R26L/CLRD70 NOSIG
Tbilisi (UGGG) Zatím nenačteno  
Tegucigalpa (MHTG) 18.06.2021 07:00 UTC Zobrazit METAR
MHTG 180700Z 00000KT 9999 SCT026 21/20 Q1018 A3006 NOSIG
Tehran (OIII) 18.06.2021 09:00 UTC Zobrazit METAR
OIII 180900Z 15010KT CAVOK 36/M05 Q1013 A2992
Tel Aviv (LLBG) 18.06.2021 08:50 UTC Zobrazit METAR
LLBG 180850Z 31008KT 280V350 9999 FEW035 27/17 Q1013 NOSIG
Tenerife (GCTS) 18.06.2021 09:00 UTC Zobrazit METAR
GCTS 180900Z 18004KT 130V230 9999 SCT020 BKN035 22/17 Q1020 NOSIG
Thessaloniki (LGTS) 18.06.2021 08:50 UTC Zobrazit METAR
LGTS 180850Z 26007KT 9999 FEW025 26/18 Q1015 NOSIG
Thule (BGTL) 18.06.2021 08:56 UTC Zobrazit METAR
BGTL 180856Z AUTO 31003KT 9999 CLR 05/05 A2992 RMK AO2 SLP116 T00480047 52009 TSNO $
Timisoara (LRTR) 18.06.2021 09:00 UTC Zobrazit METAR
LRTR 180900Z 06010KT CAVOK 27/16 Q1017
Tirana (LATI) 18.06.2021 08:50 UTC Zobrazit METAR
LATI 180850Z 33005KT 250V040 CAVOK 26/16 Q1017 NOSIG
Tokyo (RJTT) 17.06.2021 20:00 UTC Zobrazit METAR
RJTT 172000Z 03006KT 9999 FEW030 BKN045 19/16 Q1006 NOSIG
Torp (ENTO) 18.06.2021 08:50 UTC Zobrazit METAR
ENTO 180850Z 21006KT 180V240 9999 SCT011 21/18 Q1012 NOSIG
Toulouse (LFBO) 18.06.2021 09:00 UTC Zobrazit METAR
LFBO 180900Z AUTO VRB03KT 9999 FEW022 23/17 Q1015 NOSIG
Tripoli (HLLT) 13.07.2014 03:50 UTC Zobrazit METAR
HLLT 130350Z 11009KT CAVOK 24/15 Q1015
Trondheim (ENVA) 18.06.2021 08:50 UTC Zobrazit METAR
ENVA 180850Z 28019KT 9999 -RA FEW011 SCT022 BKN031 12/10 Q1013 TEMPO RA RMK WIND 670FT 29017KT
Tunis (DTTA) 18.06.2021 09:00 UTC Zobrazit METAR
DTTA 180900Z 11010KT 070V190 9999 FEW026 28/15 Q1016
Turku (EFTU) 18.06.2021 08:50 UTC Zobrazit METAR
EFTU 180850Z AUTO 20011KT 170V230 CAVOK 23/12 Q1017
Reklama

Reklama


Newslettter

Počasí na Váš email

Emaily jsou bez reklamy a bez spamu



Odhlásit newsletter



Kontaktujte nás

Kontaktujte Slunečno.cz

Kontaktujte provozovatele Slunecno.cz

Další české internetové stránky (nejen) o počasí najdete v katalogu TOPlist - weby o počasí nebo vyhledejte na internetu, co jste tu na Počasí Slunečno Slunečnu zatím nenašli:
Přidat mezzi oblíbené stránkyPřidat Slunečno.cz do oblíbených | Nastavit jako HOMEPAGENastavit Slunečno.cz jako HOMEPAGE

Posunout stránku nahoru Posunout stránku nahoru Posunout stránku nahoru
Reklama